sensor_id;sensor_type;location;lat;lon;timestamp;P1;durP1;ratioP1;P2;durP2;ratioP2
61739;SDS011;47645;45.288;12.038;2023-03-14T00:00:17;20.0;;;12.8;;
61739;SDS011;47645;45.288;12.038;2023-03-14T00:10:18;20.2;;;13.2;;
61739;SDS011;47645;45.288;12.038;2023-03-14T00:20:19;18.4;;;12.3;;
61739;SDS011;47645;45.288;12.038;2023-03-14T00:30:19;17.5;;;12.4;;
61739;SDS011;47645;45.288;12.038;2023-03-14T00:40:20;21.1;;;12.8;;
61739;SDS011;47645;45.288;12.038;2023-03-14T00:50:21;15.6;;;11.5;;
61739;SDS011;47645;45.288;12.038;2023-03-14T01:00:22;18.3;;;11.6;;
61739;SDS011;47645;45.288;12.038;2023-03-14T01:10:22;15.5;;;10.5;;
61739;SDS011;47645;45.288;12.038;2023-03-14T01:20:22;17.7;;;11.8;;
61739;SDS011;47645;45.288;12.038;2023-03-14T01:30:23;21.3;;;12.5;;
61739;SDS011;47645;45.288;12.038;2023-03-14T01:40:23;23.1;;;12.3;;
61739;SDS011;47645;45.288;12.038;2023-03-14T01:50:24;24.5;;;13.1;;
61739;SDS011;47645;45.288;12.038;2023-03-14T02:00:25;22.0;;;12.7;;
61739;SDS011;47645;45.288;12.038;2023-03-14T02:10:26;20.5;;;10.6;;
61739;SDS011;47645;45.288;12.038;2023-03-14T02:20:28;22.4;;;10.8;;
61739;SDS011;47645;45.288;12.038;2023-03-14T02:30:27;18.9;;;9.4;;
61739;SDS011;47645;45.288;12.038;2023-03-14T02:40:27;18.8;;;9.6;;
61739;SDS011;47645;45.288;12.038;2023-03-14T02:50:29;16.2;;;8.0;;
61739;SDS011;47645;45.288;12.038;2023-03-14T03:00:30;13.5;;;7.4;;
61739;SDS011;47645;45.288;12.038;2023-03-14T03:10:29;14.4;;;7.1;;
61739;SDS011;47645;45.288;12.038;2023-03-14T03:20:29;13.6;;;7.4;;
61739;SDS011;47645;45.288;12.038;2023-03-14T03:30:30;11.7;;;6.8;;
61739;SDS011;47645;45.288;12.038;2023-03-14T03:40:30;14.7;;;6.5;;
61739;SDS011;47645;45.288;12.038;2023-03-14T03:50:31;10.8;;;5.9;;
61739;SDS011;47645;45.288;12.038;2023-03-14T04:00:33;12.2;;;5.8;;
61739;SDS011;47645;45.288;12.038;2023-03-14T04:10:33;13.5;;;5.5;;
61739;SDS011;47645;45.288;12.038;2023-03-14T04:20:33;8.5;;;4.4;;
61739;SDS011;47645;45.288;12.038;2023-03-14T04:30:33;13.8;;;5.7;;
61739;SDS011;47645;45.288;12.038;2023-03-14T04:40:36;13.1;;;5.3;;
61739;SDS011;47645;45.288;12.038;2023-03-14T04:50:34;11.8;;;4.4;;
61739;SDS011;47645;45.288;12.038;2023-03-14T05:00:35;15.0;;;5.7;;
61739;SDS011;47645;45.288;12.038;2023-03-14T05:10:36;9.8;;;5.3;;
61739;SDS011;47645;45.288;12.038;2023-03-14T05:20:36;14.1;;;7.6;;
61739;SDS011;47645;45.288;12.038;2023-03-14T05:30:37;18.9;;;9.2;;
61739;SDS011;47645;45.288;12.038;2023-03-14T05:40:37;24.0;;;10.4;;
61739;SDS011;47645;45.288;12.038;2023-03-14T05:50:38;20.1;;;10.9;;
61739;SDS011;47645;45.288;12.038;2023-03-14T06:00:38;19.2;;;10.8;;
61739;SDS011;47645;45.288;12.038;2023-03-14T06:10:39;25.3;;;14.7;;
61739;SDS011;47645;45.288;12.038;2023-03-14T06:20:39;25.0;;;14.4;;
61739;SDS011;47645;45.288;12.038;2023-03-14T06:30:40;24.4;;;14.3;;
61739;SDS011;47645;45.288;12.038;2023-03-14T06:40:40;26.6;;;14.2;;
61739;SDS011;47645;45.288;12.038;2023-03-14T06:50:41;22.8;;;15.0;;
61739;SDS011;47645;45.288;12.038;2023-03-14T07:00:42;24.1;;;12.4;;
61739;SDS011;47645;45.288;12.038;2023-03-14T07:10:42;15.6;;;9.8;;
61739;SDS011;47645;45.288;12.038;2023-03-14T07:20:44;16.2;;;10.4;;
61739;SDS011;47645;45.288;12.038;2023-03-14T07:30:45;20.6;;;11.5;;
61739;SDS011;47645;45.288;12.038;2023-03-14T07:40:44;23.3;;;12.8;;
61739;SDS011;47645;45.288;12.038;2023-03-14T07:50:47;17.1;;;10.4;;
61739;SDS011;47645;45.288;12.038;2023-03-14T08:00:45;21.9;;;13.3;;
61739;SDS011;47645;45.288;12.038;2023-03-14T08:10:46;20.7;;;10.3;;
61739;SDS011;47645;45.288;12.038;2023-03-14T08:20:46;18.1;;;10.4;;
61739;SDS011;47645;45.288;12.038;2023-03-14T08:30:47;17.2;;;9.6;;
61739;SDS011;47645;45.288;12.038;2023-03-14T08:40:48;16.3;;;8.7;;
61739;SDS011;47645;45.288;12.038;2023-03-14T08:50:48;16.3;;;10.3;;
61739;SDS011;47645;45.288;12.038;2023-03-14T09:00:49;16.0;;;8.5;;
61739;SDS011;47645;45.288;12.038;2023-03-14T09:10:50;17.4;;;8.2;;
61739;SDS011;47645;45.288;12.038;2023-03-14T09:20:50;19.0;;;8.3;;
61739;SDS011;47645;45.288;12.038;2023-03-14T09:30:51;18.0;;;8.7;;
61739;SDS011;47645;45.288;12.038;2023-03-14T09:40:52;20.1;;;9.8;;
61739;SDS011;47645;45.288;12.038;2023-03-14T09:50:53;17.1;;;10.0;;
61739;SDS011;47645;45.288;12.038;2023-03-14T10:00:54;16.8;;;8.5;;
61739;SDS011;47645;45.288;12.038;2023-03-14T10:10:54;15.9;;;10.0;;
61739;SDS011;47645;45.288;12.038;2023-03-14T10:21:01;16.1;;;9.7;;
61739;SDS011;47645;45.288;12.038;2023-03-14T10:30:58;18.0;;;10.1;;
61739;SDS011;47645;45.288;12.038;2023-03-14T10:40:56;15.0;;;8.7;;
61739;SDS011;47645;45.288;12.038;2023-03-14T10:50:57;17.2;;;9.1;;
61739;SDS011;47645;45.288;12.038;2023-03-14T11:01:00;17.8;;;8.7;;
61739;SDS011;47645;45.288;12.038;2023-03-14T11:11:02;15.0;;;7.1;;
61739;SDS011;47645;45.288;12.038;2023-03-14T11:20:59;14.4;;;7.0;;
61739;SDS011;47645;45.288;12.038;2023-03-14T11:31:00;14.3;;;6.0;;
61739;SDS011;47645;45.288;12.038;2023-03-14T11:41:00;13.3;;;5.9;;
61739;SDS011;47645;45.288;12.038;2023-03-14T11:51:01;17.2;;;6.7;;
61739;SDS011;47645;45.288;12.038;2023-03-14T12:01:02;16.3;;;5.5;;
61739;SDS011;47645;45.288;12.038;2023-03-14T12:11:02;15.0;;;5.2;;
61739;SDS011;47645;45.288;12.038;2023-03-14T12:21:03;11.1;;;4.4;;
61739;SDS011;47645;45.288;12.038;2023-03-14T12:31:37;11.3;;;3.9;;
61739;SDS011;47645;45.288;12.038;2023-03-14T12:41:06;13.4;;;3.9;;
61739;SDS011;47645;45.288;12.038;2023-03-14T12:51:05;9.8;;;3.6;;
61739;SDS011;47645;45.288;12.038;2023-03-14T13:01:05;7.9;;;3.3;;
61739;SDS011;47645;45.288;12.038;2023-03-14T13:11:07;10.3;;;3.3;;
61739;SDS011;47645;45.288;12.038;2023-03-14T13:21:07;9.9;;;3.5;;
61739;SDS011;47645;45.288;12.038;2023-03-14T13:31:12;10.2;;;3.0;;
61739;SDS011;47645;45.288;12.038;2023-03-14T13:41:10;9.9;;;3.0;;
61739;SDS011;47645;45.288;12.038;2023-03-14T13:51:11;9.9;;;3.4;;
61739;SDS011;47645;45.288;12.038;2023-03-14T14:01:12;9.5;;;3.1;;
61739;SDS011;47645;45.288;12.038;2023-03-14T14:11:12;9.8;;;3.0;;
61739;SDS011;47645;45.288;12.038;2023-03-14T14:21:12;11.6;;;4.2;;
61739;SDS011;47645;45.288;12.038;2023-03-14T14:31:20;10.3;;;3.4;;
61739;SDS011;47645;45.288;12.038;2023-03-14T14:41:13;12.4;;;4.4;;
61739;SDS011;47645;45.288;12.038;2023-03-14T14:51:21;9.9;;;3.2;;
61739;SDS011;47645;45.288;12.038;2023-03-14T15:01:15;11.2;;;3.3;;
61739;SDS011;47645;45.288;12.038;2023-03-14T15:11:16;10.7;;;3.3;;
61739;SDS011;47645;45.288;12.038;2023-03-14T15:21:16;9.9;;;3.5;;
61739;SDS011;47645;45.288;12.038;2023-03-14T15:31:18;8.9;;;3.6;;
61739;SDS011;47645;45.288;12.038;2023-03-14T15:41:18;14.1;;;4.4;;
61739;SDS011;47645;45.288;12.038;2023-03-14T15:51:18;11.3;;;4.2;;
61739;SDS011;47645;45.288;12.038;2023-03-14T16:01:19;12.3;;;3.8;;
61739;SDS011;47645;45.288;12.038;2023-03-14T16:11:20;11.2;;;4.1;;
61739;SDS011;47645;45.288;12.038;2023-03-14T16:21:21;10.0;;;3.1;;
61739;SDS011;47645;45.288;12.038;2023-03-14T16:31:25;13.2;;;3.9;;
61739;SDS011;47645;45.288;12.038;2023-03-14T16:41:22;10.5;;;4.4;;
61739;SDS011;47645;45.288;12.038;2023-03-14T16:51:23;14.8;;;4.3;;
61739;SDS011;47645;45.288;12.038;2023-03-14T17:01:24;12.2;;;4.4;;
61739;SDS011;47645;45.288;12.038;2023-03-14T17:11:25;17.0;;;6.4;;
61739;SDS011;47645;45.288;12.038;2023-03-14T17:21:26;31.2;;;12.1;;
61739;SDS011;47645;45.288;12.038;2023-03-14T17:31:26;11.7;;;4.8;;
61739;SDS011;47645;45.288;12.038;2023-03-14T17:41:27;14.7;;;6.0;;
61739;SDS011;47645;45.288;12.038;2023-03-14T17:51:28;12.4;;;4.6;;
61739;SDS011;47645;45.288;12.038;2023-03-14T18:01:28;18.0;;;8.2;;
61739;SDS011;47645;45.288;12.038;2023-03-14T18:11:30;9.9;;;4.7;;
61739;SDS011;47645;45.288;12.038;2023-03-14T18:21:31;16.6;;;6.4;;
61739;SDS011;47645;45.288;12.038;2023-03-14T18:31:34;18.4;;;7.5;;
61739;SDS011;47645;45.288;12.038;2023-03-14T18:41:33;17.8;;;7.2;;
61739;SDS011;47645;45.288;12.038;2023-03-14T18:51:32;19.9;;;9.2;;
61739;SDS011;47645;45.288;12.038;2023-03-14T19:01:33;19.4;;;8.4;;
61739;SDS011;47645;45.288;12.038;2023-03-14T19:11:34;18.8;;;8.4;;
61739;SDS011;47645;45.288;12.038;2023-03-14T19:21:36;19.0;;;10.2;;
61739;SDS011;47645;45.288;12.038;2023-03-14T19:31:35;25.1;;;12.2;;
61739;SDS011;47645;45.288;12.038;2023-03-14T19:41:36;23.6;;;10.7;;
61739;SDS011;47645;45.288;12.038;2023-03-14T19:51:37;22.0;;;11.5;;
61739;SDS011;47645;45.288;12.038;2023-03-14T20:01:37;23.5;;;10.8;;
61739;SDS011;47645;45.288;12.038;2023-03-14T20:11:40;24.7;;;11.0;;
61739;SDS011;47645;45.288;12.038;2023-03-14T20:21:39;25.6;;;10.2;;
61739;SDS011;47645;45.288;12.038;2023-03-14T20:31:40;24.1;;;10.4;;
61739;SDS011;47645;45.288;12.038;2023-03-14T20:41:41;25.7;;;10.3;;
61739;SDS011;47645;45.288;12.038;2023-03-14T20:51:41;26.7;;;12.8;;
61739;SDS011;47645;45.288;12.038;2023-03-14T21:01:42;22.3;;;11.5;;
61739;SDS011;47645;45.288;12.038;2023-03-14T21:11:46;24.2;;;11.1;;
61739;SDS011;47645;45.288;12.038;2023-03-14T21:21:43;21.1;;;10.5;;
61739;SDS011;47645;45.288;12.038;2023-03-14T21:31:43;21.1;;;11.3;;
61739;SDS011;47645;45.288;12.038;2023-03-14T21:41:45;25.0;;;11.1;;
61739;SDS011;47645;45.288;12.038;2023-03-14T21:51:45;23.6;;;10.9;;
61739;SDS011;47645;45.288;12.038;2023-03-14T22:01:45;20.5;;;8.9;;
61739;SDS011;47645;45.288;12.038;2023-03-14T22:11:46;22.5;;;9.5;;
61739;SDS011;47645;45.288;12.038;2023-03-14T22:21:47;21.6;;;9.4;;
61739;SDS011;47645;45.288;12.038;2023-03-14T22:31:48;23.4;;;9.8;;
61739;SDS011;47645;45.288;12.038;2023-03-14T22:41:48;20.6;;;9.0;;
61739;SDS011;47645;45.288;12.038;2023-03-14T22:51:49;17.8;;;8.4;;
61739;SDS011;47645;45.288;12.038;2023-03-14T23:01:50;16.4;;;8.1;;
61739;SDS011;47645;45.288;12.038;2023-03-14T23:11:52;16.8;;;7.7;;
61739;SDS011;47645;45.288;12.038;2023-03-14T23:21:51;15.6;;;6.6;;
61739;SDS011;47645;45.288;12.038;2023-03-14T23:31:51;10.4;;;6.2;;
61739;SDS011;47645;45.288;12.038;2023-03-14T23:41:52;10.5;;;5.9;;
61739;SDS011;47645;45.288;12.038;2023-03-14T23:51:53;8.9;;;4.7;;
